createdAt,value
2019-04-26T00:04:33.825Z,99247.92
2019-04-26T00:09:39.585Z,99232.23
2019-04-26T00:14:54.842Z,99239.75
2019-04-26T00:19:59.128Z,99239.75
2019-04-26T00:25:03.549Z,99244.55
2019-04-26T00:30:07.713Z,99234.02
2019-04-26T00:35:12.922Z,99229.42
2019-04-26T00:40:18.229Z,99238.63
2019-04-26T00:45:23.825Z,99234.88
2019-04-26T00:50:28.087Z,99218.84
2019-04-26T00:55:34.687Z,99218.84
2019-04-26T01:00:38.765Z,99236.09
2019-04-26T01:05:42.768Z,99234.04
2019-04-26T01:10:46.851Z,99221.31
2019-04-26T01:15:50.850Z,99226.02
2019-04-26T01:20:57.879Z,99226.02
2019-04-26T01:26:14.395Z,99223.40
2019-04-26T01:31:19.872Z,99213.38
2019-04-26T01:36:26.930Z,99214.88
2019-04-26T01:41:40.079Z,99218.23
2019-04-26T01:46:46.648Z,99221.90
2019-04-26T01:51:58.427Z,99223.05
2019-04-26T01:57:04.986Z,99217.45
2019-04-26T02:02:25.910Z,99217.45
2019-04-26T02:07:38.722Z,99223.83
2019-04-26T02:12:45.950Z,99213.33
2019-04-26T02:17:52.178Z,99200.84
2019-04-26T02:23:06.718Z,99213.95
2019-04-26T02:28:10.801Z,99188.47
2019-04-26T02:33:15.550Z,99182.72
2019-04-26T02:38:20.192Z,99197.22
2019-04-26T02:43:28.633Z,99192.09
2019-04-26T02:48:51.652Z,99191.74
2019-04-26T02:54:04.837Z,99191.74
2019-04-26T02:59:38.187Z,99199.26
2019-04-26T03:04:44.826Z,99234.34
2019-04-26T03:09:51.832Z,99210.70
2019-04-26T03:15:13.693Z,99227.05
2019-04-26T03:20:19.164Z,99236.15
2019-04-26T03:25:32.827Z,99236.15
2019-04-26T03:31:00.742Z,99231.52
2019-04-26T03:36:25.699Z,99223.27
2019-04-26T03:42:02.108Z,99223.27
2019-04-26T03:47:10.035Z,99221.38
2019-04-26T03:52:23.602Z,99226.34
2019-04-26T03:57:41.846Z,99240.72
2019-04-26T04:03:05.290Z,99237.84
2019-04-26T04:08:13.264Z,99237.84
2019-04-26T04:14:00.573Z,99239.64
2019-04-26T04:19:13.787Z,99255.94
2019-04-26T04:24:28.438Z,99251.69
2019-04-26T04:29:50.024Z,99263.83
2019-04-26T04:34:53.621Z,99263.83
2019-04-26T04:40:19.378Z,99279.66
2019-04-26T04:46:12.901Z,99281.86
2019-04-26T04:51:42.894Z,99292.30
2019-04-26T04:57:30.605Z,99292.30
2019-04-26T05:02:53.446Z,99307.98
2019-04-26T05:08:21.073Z,99321.97
2019-04-26T05:13:58.645Z,99321.97
2019-04-26T05:19:39.864Z,99318.77
2019-04-26T05:25:19.750Z,99325.28
2019-04-26T05:31:17.666Z,99339.12
2019-04-26T05:36:31.280Z,99350.90
2019-04-26T05:42:22.082Z,99357.64
2019-04-26T05:48:03.174Z,99357.64
2019-04-26T05:53:59.531Z,99362.69
2019-04-26T05:59:37.880Z,99362.69
2019-04-26T06:05:05.797Z,99369.43
2019-04-26T06:10:25.049Z,99367.58
2019-04-26T06:15:53.067Z,99367.58
2019-04-26T06:21:13.843Z,99362.69
2019-04-26T06:27:10.324Z,99367.58
2019-04-26T06:32:13.243Z,99384.97
2019-04-26T06:37:35.458Z,99394.91
2019-04-26T06:43:26.792Z,99379.08
2019-04-26T06:49:13.891Z,99400.38
2019-04-26T06:54:31.185Z,99412.48
2019-04-26T06:59:52.638Z,99412.48
2019-04-26T07:05:20.461Z,99410.66
2019-04-26T07:10:58.193Z,99406.64
2019-04-26T07:16:41.684Z,99406.64
2019-04-26T07:22:35.868Z,99417.56
2019-04-26T07:28:06.412Z,99421.95
2019-04-26T07:33:30.402Z,99428.84
2019-04-26T07:39:19.467Z,99422.03
2019-04-26T07:45:02.068Z,99432.92
2019-04-26T07:50:48.804Z,99427.28
2019-04-26T07:56:00.594Z,99424.88
2019-04-26T08:01:31.817Z,99431.78
2019-04-26T08:06:43.907Z,99428.33
2019-04-26T08:11:55.073Z,99422.70
2019-04-26T08:17:37.398Z,99414.48
2019-04-26T08:22:45.038Z,99409.09
2019-04-26T08:27:51.701Z,99404.53
2019-04-26T08:33:02.057Z,99419.58
2019-04-26T08:38:16.211Z,99417.95
2019-04-26T08:43:50.072Z,99417.95
2019-04-26T08:49:06.749Z,99415.72
2019-04-26T08:54:19.185Z,99415.72
2019-04-26T08:59:28.897Z,99412.03
2019-04-26T09:04:41.312Z,99432.44
2019-04-26T09:09:57.026Z,99432.44
2019-04-26T09:14:57.663Z,99434.23
2019-04-26T09:20:07.119Z,99436.78
2019-04-26T09:25:22.601Z,99436.78
2019-04-26T09:30:34.290Z,99441.62
2019-04-26T09:35:35.196Z,99439.67
2019-04-26T09:40:39.471Z,99424.22
2019-04-26T09:46:01.231Z,99428.12
2019-04-26T09:51:05.888Z,99428.12
2019-04-26T09:56:09.887Z,99449.12
2019-04-26T10:01:14.039Z,99439.95
2019-04-26T10:06:18.204Z,99439.95
2019-04-26T10:11:24.628Z,99447.12
2019-04-26T10:16:37.711Z,99448.98
2019-04-26T10:21:41.745Z,99438.09
2019-04-26T10:26:45.759Z,99441.79
2019-04-26T10:31:51.789Z,99441.79
2019-04-26T10:36:57.058Z,99443.02
2019-04-26T10:42:01.317Z,99448.07
2019-04-26T10:47:06.043Z,99448.07
2019-04-26T10:52:17.111Z,99454.27
2019-04-26T10:57:29.408Z,99445.31
2019-04-26T11:02:33.575Z,99445.31
2019-04-26T11:07:37.580Z,99442.06
2019-04-26T11:12:43.321Z,99438.80
2019-04-26T11:17:50.020Z,99438.80
2019-04-26T11:22:53.309Z,99446.48
2019-04-26T11:27:57.410Z,99437.69
2019-04-26T11:33:01.396Z,99441.91
2019-04-26T11:38:05.656Z,99441.59
2019-04-26T11:43:09.639Z,99441.59
2019-04-26T11:48:14.066Z,99447.77
2019-04-26T11:53:18.062Z,99447.77
2019-04-26T11:58:23.599Z,99445.22
2019-04-26T12:03:27.837Z,99438.48
2019-04-26T12:08:41.305Z,99438.48
2019-04-26T12:13:45.403Z,99431.70
2019-04-26T12:18:49.414Z,99424.68
2019-04-26T12:23:55.440Z,99437.73
2019-04-26T12:28:59.225Z,99436.49
2019-04-26T12:34:03.229Z,99434.93
2019-04-26T12:39:09.021Z,99433.94
2019-04-26T12:44:14.777Z,99452.52
2019-04-26T12:49:20.358Z,99439.83
2019-04-26T12:54:25.053Z,99443.48
2019-04-26T12:59:29.119Z,99443.48
2019-04-26T13:04:36.132Z,99431.52
2019-04-26T13:09:40.840Z,99430.50
2019-04-26T13:15:02.626Z,99421.63
2019-04-26T13:20:07.011Z,99449.61
2019-04-26T13:25:20.247Z,99458.73
2019-04-26T13:30:17.273Z,99465.58
2019-04-26T13:35:21.440Z,99480.19
2019-04-26T13:40:29.250Z,99480.19
2019-04-26T13:45:53.352Z,99477.95
2019-04-26T13:51:05.631Z,99445.71
2019-04-26T13:56:08.620Z,99447.77
2019-04-26T14:01:14.658Z,99462.59
2019-04-26T14:06:19.013Z,99463.16
2019-04-26T14:11:28.078Z,99482.95
2019-04-26T14:16:28.825Z,99482.48
2019-04-26T14:21:34.483Z,99476.13
2019-04-26T14:26:43.921Z,99473.93
2019-04-26T14:31:51.412Z,99468.05
2019-04-26T14:37:05.964Z,99492.61
2019-04-26T14:41:59.870Z,99502.58
2019-04-26T14:47:13.511Z,99502.58
2019-04-26T14:52:09.782Z,99509.42
2019-04-26T14:57:21.088Z,99522.75
2019-04-26T15:02:37.040Z,99529.81
2019-04-26T15:07:49.456Z,99511.83
2019-04-26T15:12:48.896Z,99520.99
2019-04-26T15:17:53.637Z,99520.99
2019-04-26T15:22:58.471Z,99544.83
2019-04-26T15:28:02.591Z,99556.90
2019-04-26T15:33:08.947Z,99564.29
2019-04-26T15:38:13.100Z,99546.23
2019-04-26T15:43:36.089Z,99558.52
2019-04-26T15:49:12.535Z,99558.24
2019-04-26T15:54:17.930Z,99559.22
2019-04-26T15:59:25.283Z,99555.33
2019-04-26T16:04:28.396Z,99570.24
2019-04-26T16:09:32.676Z,99574.98
2019-04-26T16:14:37.117Z,99567.59
2019-04-26T16:19:41.286Z,99567.59
2019-04-26T16:24:45.364Z,99600.05
2019-04-26T16:30:16.687Z,99600.50
2019-04-26T16:35:25.380Z,99586.50
2019-04-26T16:40:27.072Z,99609.29
2019-04-26T16:45:32.752Z,99607.03
2019-04-26T16:50:44.007Z,99607.03
2019-04-26T16:55:50.593Z,99602.91
2019-04-26T17:00:54.761Z,99637.99
2019-04-26T17:06:04.658Z,99645.13
2019-04-26T17:11:00.780Z,99647.33
2019-04-26T17:16:05.799Z,99665.58
2019-04-26T17:21:10.033Z,99674.88
2019-04-26T17:26:33.753Z,99672.20
2019-04-26T17:31:37.979Z,99703.60
2019-04-26T17:36:42.058Z,99710.07
2019-04-26T17:41:50.739Z,99710.07
2019-04-26T17:46:56.250Z,99721.72
2019-04-26T17:51:59.832Z,99735.95
2019-04-26T17:57:04.335Z,99738.77
2019-04-26T18:02:24.112Z,99738.77
2019-04-26T18:07:37.764Z,99748.96
2019-04-26T18:12:20.819Z,99777.52
2019-04-26T18:18:23.322Z,99780.47
2019-04-26T18:23:01.218Z,99780.47
2019-04-26T18:28:08.777Z,99780.34
2019-04-26T18:33:13.335Z,99777.14
2019-04-26T18:38:17.288Z,99787.80
2019-04-26T18:43:24.074Z,99794.55
2019-04-26T18:48:27.145Z,99810.00
2019-04-26T18:53:49.003Z,99821.02
2019-04-26T18:58:55.639Z,99821.02
2019-04-26T19:04:00.287Z,99823.23
2019-04-26T19:09:06.738Z,99832.59
2019-04-26T19:14:32.579Z,99832.59
2019-04-26T19:19:54.555Z,99855.75
2019-04-26T19:24:58.560Z,99849.50
2019-04-26T19:30:08.923Z,99849.50
2019-04-26T19:35:12.192Z,99833.09
2019-04-26T19:40:15.291Z,99860.66
2019-04-26T19:45:35.252Z,99860.66
2019-04-26T19:50:50.225Z,99863.22
2019-04-26T19:56:08.792Z,99946.44
2019-04-26T20:01:16.538Z,100003.72
2019-04-26T20:06:19.879Z,100017.34
2019-04-26T20:11:24.095Z,99988.14
2019-04-26T20:16:28.177Z,99998.09
2019-04-26T20:21:34.166Z,99981.63
2019-04-26T20:26:41.942Z,100008.75
2019-04-26T20:32:09.147Z,100008.75
2019-04-26T20:37:16.120Z,99986.80
2019-04-26T20:42:19.013Z,100007.77
2019-04-26T20:47:23.195Z,100007.04
2019-04-26T20:52:27.328Z,99987.16
2019-04-26T20:57:34.380Z,99986.30
2019-04-26T21:02:37.218Z,99996.47
2019-04-26T21:07:41.961Z,100000.66
2019-04-26T21:12:51.142Z,100006.91
2019-04-26T21:17:56.744Z,100006.91
2019-04-26T21:23:02.409Z,99983.60
2019-04-26T21:28:11.565Z,99980.77
2019-04-26T21:33:28.741Z,99979.91
2019-04-26T21:38:36.439Z,99968.75
2019-04-26T21:43:46.427Z,99968.75
2019-04-26T21:48:50.454Z,99951.07
2019-04-26T21:53:54.459Z,99961.51
2019-04-26T21:58:58.498Z,99961.51
2019-04-26T22:04:03.024Z,99952.78
2019-04-26T22:09:35.045Z,99941.48
2019-04-26T22:14:36.842Z,99945.54
2019-04-26T22:20:12.460Z,99933.03
2019-04-26T22:25:12.948Z,99928.48
2019-04-26T22:30:28.278Z,99946.03
2019-04-26T22:35:28.812Z,99946.03
2019-04-26T22:40:33.527Z,99922.73
2019-04-26T22:45:50.863Z,99913.78
2019-04-26T22:50:58.624Z,99944.09
2019-04-26T22:56:01.435Z,99944.09
2019-04-26T23:01:06.627Z,99964.70
2019-04-26T23:06:12.750Z,99949.36
2019-04-26T23:11:17.258Z,99934.53
2019-04-26T23:16:55.908Z,99955.48
2019-04-26T23:21:55.580Z,99978.33
2019-04-26T23:26:57.957Z,99973.89
2019-04-26T23:32:03.594Z,99973.89
2019-04-26T23:37:07.972Z,99961.14
2019-04-26T23:42:12.340Z,99959.92
2019-04-26T23:47:21.087Z,99968.75
2019-04-26T23:52:24.533Z,99956.73
2019-04-26T23:57:31.347Z,99964.83
